Time;durP1;ratioP1;P1;durP2;ratioP2;P2;SDS_P1;SDS_P2;PMS_P1;PMS_P2;Temp;Humidity;BMP_temperature;BMP_pressure;BME280_temperature;BME280_humidity;BME280_pressure;Samples;Min_cycle;Max_cycle;Signal;HPM_P1;HPM_P2
2022/05/21 00:00:49;;;;;;;2.38;1.33;;;14.00;99.90;;;13.43;100.00;98080.91;5022692;28;20085;-70
2022/05/21 00:03:16;;;;;;;3.67;1.55;;;14.00;99.90;;;13.38;100.00;98083.72;5023117;28;20045;-71
2022/05/21 00:05:45;;;;;;;6.35;1.42;;;14.10;99.90;;;13.37;100.00;98087.25;5024148;28;20476;-71
2022/05/21 00:08:13;;;;;;;4.50;1.65;;;14.10;99.90;;;13.29;100.00;98091.13;5023360;28;20181;-71
2022/05/21 00:10:41;;;;;;;5.25;2.42;;;14.10;99.90;;;13.24;100.00;98095.69;5023085;28;20046;-71
2022/05/21 00:13:08;;;;;;;4.50;2.15;;;13.90;99.90;;;13.10;100.00;98098.91;5023418;28;20489;-71
2022/05/21 00:15:36;;;;;;;4.20;1.58;;;13.90;99.90;;;13.16;100.00;98104.69;5024406;28;20732;-71
2022/05/21 00:18:04;;;;;;;3.20;1.60;;;13.90;99.90;;;13.17;100.00;98106.38;5021305;28;20065;-72
2022/05/21 00:20:50;;;;;;;5.47;1.52;;;13.90;99.90;;;13.22;100.00;98107.94;5025560;28;20073;-71
2022/05/21 00:23:24;;;;;;;6.63;2.08;;;14.00;99.90;;;13.17;100.00;98116.78;5019106;28;20057;-71
2022/05/21 00:26:05;;;;;;;4.15;1.88;;;13.90;99.90;;;13.05;100.00;98121.72;5026071;28;20054;-71
2022/05/21 00:28:35;;;;;;;4.25;1.73;;;13.80;99.90;;;13.01;100.00;98131.41;5024120;28;20136;-70
2022/05/21 00:31:04;;;;;;;2.78;1.60;;;13.70;99.90;;;12.92;100.00;98130.06;5016370;28;20050;-71
2022/05/21 00:33:32;;;;;;;3.88;2.08;;;13.70;99.90;;;12.72;100.00;98128.28;5022109;28;20049;-71
2022/05/21 00:35:59;;;;;;;3.80;1.80;;;13.70;99.90;;;12.62;100.00;98128.78;5018528;28;20149;-70
2022/05/21 00:38:26;;;;;;;3.92;1.55;;;13.50;99.90;;;12.50;100.00;98137.94;5008976;28;20049;-71
2022/05/21 00:40:54;;;;;;;4.47;1.90;;;13.40;99.90;;;12.37;100.00;98140.19;5022806;28;20052;-71
2022/05/21 00:43:38;;;;;;;3.80;1.58;;;13.30;99.90;;;12.48;100.00;98148.41;5026036;28;20076;-70
2022/05/21 00:46:19;;;;;;;2.30;1.60;;;13.30;99.90;;;12.58;100.00;98148.03;5023558;28;20500;-72
2022/05/21 00:49:03;;;;;;;2.80;1.40;;;13.20;99.90;;;12.30;100.00;98151.78;5021656;28;20080;-71
2022/05/21 00:51:46;;;;;;;2.75;1.38;;;13.30;99.90;;;12.41;100.00;98152.19;5020315;28;20045;-70
2022/05/21 00:54:16;;;;;;;3.80;1.90;;;13.30;99.90;;;12.34;100.00;98156.78;5028055;28;20156;-71
2022/05/21 00:56:50;;;;;;;3.65;1.63;;;13.20;99.90;;;12.27;100.00;98150.16;5019291;28;20069;-72
2022/05/21 01:02:07;;;;;;;5.38;1.73;;;13.10;99.90;;;12.12;100.00;98154.19;5019245;28;20516;-72
2022/05/21 01:04:36;;;;;;;3.85;1.90;;;12.90;99.90;;;11.81;100.00;98158.84;5020100;28;20135;-71
2022/05/21 01:07:05;;;;;;;3.65;1.90;;;12.90;99.90;;;11.76;100.00;98153.00;5022776;28;20129;-72
2022/05/21 01:09:35;;;;;;;4.30;1.67;;;12.80;99.90;;;11.77;100.00;98159.88;5019617;28;20088;-71
2022/05/21 01:12:05;;;;;;;3.75;1.80;;;12.70;99.90;;;11.73;100.00;98169.56;5021778;28;20053;-71
2022/05/21 01:14:33;;;;;;;3.33;1.52;;;12.60;99.90;;;11.77;100.00;98167.66;5023621;28;20420;-71
2022/05/21 01:17:01;;;;;;;3.58;1.70;;;12.60;99.90;;;11.73;100.00;98161.75;5023927;28;20603;-71
2022/05/21 01:19:28;;;;;;;2.45;1.42;;;12.60;99.90;;;11.63;100.00;98169.06;5021184;28;20042;-71
2022/05/21 01:21:56;;;;;;;4.78;1.80;;;12.60;99.90;;;11.71;100.00;98171.38;5022875;28;20085;-73
2022/05/21 01:24:22;;;;;;;3.15;1.83;;;12.50;99.90;;;11.46;100.00;98176.63;5025570;28;20132;-71
2022/05/21 01:26:50;;;;;;;4.93;1.90;;;12.50;99.90;;;11.40;100.00;98182.88;5026215;28;20077;-71
2022/05/21 01:29:24;;;;;;;4.00;1.77;;;12.50;99.90;;;11.43;100.00;98184.56;5025193;28;21301;-71
2022/05/21 01:31:53;;;;;;;2.22;1.52;;;12.40;99.90;;;11.42;100.00;98191.47;5023281;28;20090;-73
2022/05/21 01:34:22;;;;;;;2.88;1.83;;;12.30;99.90;;;11.32;100.00;98191.88;5027818;28;20128;-71
2022/05/21 01:36:49;;;;;;;5.38;2.08;;;12.30;99.90;;;11.22;100.00;98192.22;5023163;28;20507;-71
2022/05/21 01:39:16;;;;;;;3.83;1.80;;;12.20;99.90;;;11.17;100.00;98188.06;5030174;28;20165;-71
2022/05/21 01:41:45;;;;;;;3.05;1.55;;;12.20;99.90;;;11.19;100.00;98194.91;5030404;28;20152;-71
2022/05/21 01:46:57;;;;;;;4.75;1.60;;;12.10;99.90;;;11.24;100.00;98198.22;5025682;28;20474;-71
2022/05/21 01:49:25;;;;;;;2.63;1.73;;;12.10;99.90;;;11.13;100.00;98196.88;5028037;28;20045;-72
2022/05/21 01:51:51;;;;;;;3.58;2.10;;;12.10;99.90;;;11.03;100.00;98201.53;5027995;28;20491;-71
2022/05/21 01:54:18;;;;;;;3.13;2.10;;;12.00;99.90;;;10.99;100.00;98199.94;5030619;28;20148;-70
2022/05/21 01:56:45;;;;;;;5.03;2.50;;;12.00;99.90;;;11.06;100.00;98193.63;5023556;28;20124;-71
2022/05/21 01:59:12;;;;;;;6.65;1.77;;;12.00;99.90;;;10.96;100.00;98203.50;5025271;28;20136;-71
2022/05/21 02:01:39;;;;;;;4.38;2.55;;;12.00;99.90;;;10.83;100.00;98210.00;5028367;28;20132;-72
2022/05/21 02:04:06;;;;;;;6.43;2.05;;;11.90;99.90;;;10.86;100.00;98209.91;5023979;28;20049;-70
2022/05/21 02:06:33;;;;;;;3.65;1.73;;;11.80;99.90;;;11.00;100.00;98209.44;5028909;28;20072;-71
2022/05/21 02:09:01;;;;;;;3.45;2.03;;;11.80;99.90;;;10.94;100.00;98214.84;5029729;28;20146;-71
2022/05/21 02:11:28;;;;;;;5.03;2.38;;;11.80;99.90;;;10.89;100.00;98210.63;5029399;28;20135;-71
2022/05/21 02:13:55;;;;;;;5.75;2.38;;;11.80;99.90;;;10.86;100.00;98210.75;5029970;28;20069;-71
2022/05/21 02:16:22;;;;;;;3.70;1.63;;;11.80;99.90;;;11.06;100.00;98217.00;5026125;28;20591;-71
2022/05/21 02:18:49;;;;;;;3.85;2.08;;;11.80;99.90;;;10.84;100.00;98216.91;5029219;28;20134;-71
2022/05/21 02:21:17;;;;;;;4.72;2.20;;;11.90;99.90;;;10.93;100.00;98221.78;5026150;28;20091;-72
2022/05/21 02:23:45;;;;;;;5.38;2.60;;;11.80;99.90;;;10.85;100.00;98221.19;5027574;28;20049;-71
2022/05/21 02:26:12;;;;;;;5.93;2.80;;;11.80;99.90;;;10.68;100.00;98224.34;5028200;28;20240;-72
2022/05/21 02:28:39;;;;;;;7.43;3.97;;;11.80;99.90;;;10.36;100.00;98228.81;5029411;28;20210;-71
2022/05/21 02:31:06;;;;;;;6.38;2.60;;;11.70;99.90;;;10.41;100.00;98231.28;5030211;28;20215;-71
2022/05/21 02:33:33;;;;;;;7.40;3.45;;;11.60;99.90;;;10.25;100.00;98234.31;5032843;28;20055;-74
2022/05/21 02:36:00;;;;;;;5.55;3.90;;;11.50;99.90;;;10.11;100.00;98244.25;5041104;28;20105;-78
2022/05/21 02:41:20;;;;;;;5.57;3.17;;;11.30;99.90;;;10.05;100.00;98247.03;5025896;28;20132;-71
2022/05/21 02:43:48;;;;;;;8.05;3.58;;;11.20;99.90;;;9.95;100.00;98256.00;5027049;28;20176;-71
2022/05/21 02:46:16;;;;;;;6.50;3.80;;;11.10;99.90;;;9.91;100.00;98263.00;5025527;28;20042;-71
2022/05/21 02:48:43;;;;;;;5.40;3.83;;;11.00;99.90;;;9.81;100.00;98256.38;5027553;28;20057;-71
2022/05/21 02:51:11;;;;;;;5.10;3.00;;;11.00;99.90;;;9.98;100.00;98259.31;5024762;28;20080;-73
2022/05/21 02:53:38;;;;;;;10.70;3.22;;;10.90;99.90;;;9.92;100.00;98266.44;5026461;28;20117;-71
2022/05/21 02:56:09;;;;;;;4.97;2.55;;;10.90;99.90;;;10.12;100.00;98263.25;5027840;28;20128;-71
2022/05/21 02:58:36;;;;;;;3.78;2.20;;;11.00;99.90;;;10.30;100.00;98267.94;5029186;28;20160;-71
2022/05/21 03:01:03;;;;;;;6.30;3.50;;;11.10;99.90;;;9.90;100.00;98273.41;5028677;28;20128;-71
2022/05/21 03:03:31;;;;;;;6.63;2.90;;;11.00;99.90;;;10.00;100.00;98270.50;5028792;28;20125;-72
2022/05/21 03:05:59;;;;;;;7.43;3.25;;;11.00;99.90;;;9.77;100.00;98275.50;5026674;28;20081;-71
2022/05/21 03:11:11;;;;;;;4.57;2.60;;;10.90;99.90;;;9.95;100.00;98279.31;5029111;28;20076;-71
2022/05/21 03:13:39;;;;;;;6.75;2.70;;;10.90;99.90;;;9.92;100.00;98282.00;5027661;28;20135;-71
2022/05/21 03:16:06;;;;;;;4.32;2.45;;;10.90;99.90;;;10.07;100.00;98275.53;5028385;28;20128;-72
2022/05/21 03:18:35;;;;;;;5.05;2.72;;;10.90;99.90;;;9.98;100.00;98269.69;5028490;28;20057;-71
2022/05/21 03:21:02;;;;;;;4.25;2.70;;;11.00;99.90;;;9.73;100.00;98279.91;5023756;28;20077;-71
2022/05/21 03:23:30;;;;;;;7.60;2.72;;;10.90;99.90;;;9.94;100.00;98270.69;5028396;28;20090;-71
2022/05/21 03:25:57;;;;;;;6.68;3.65;;;10.80;99.90;;;9.69;100.00;98280.06;5028868;28;20128;-72
2022/05/21 03:28:24;;;;;;;9.13;3.45;;;10.90;99.90;;;9.69;100.00;98280.91;5025994;28;20515;-71
2022/05/21 03:30:51;;;;;;;6.78;3.80;;;10.90;99.90;;;9.52;100.00;98286.56;5025309;28;20081;-71
2022/05/21 03:33:18;;;;;;;6.90;4.05;;;10.70;99.90;;;9.62;100.00;98287.13;5026406;28;20120;-71
2022/05/21 03:35:45;;;;;;;5.90;4.25;;;10.70;99.90;;;9.52;100.00;98278.78;5028563;28;20081;-70
2022/05/21 03:38:14;;;;;;;7.28;4.35;;;10.70;99.90;;;9.47;100.00;98288.44;5027410;28;20046;-72
2022/05/21 03:40:41;;;;;;;11.57;5.07;;;10.60;99.90;;;9.50;100.00;98292.66;5028205;28;20132;-69
2022/05/21 03:43:09;;;;;;;6.40;4.20;;;10.60;99.90;;;9.75;100.00;98287.66;5026170;28;20834;-71
2022/05/21 03:45:36;;;;;;;10.52;4.50;;;10.50;99.90;;;9.72;100.00;98290.34;5027056;28;20083;-71
2022/05/21 03:48:08;;;;;;;8.50;5.03;;;10.70;99.90;;;9.68;100.00;98283.56;5025154;28;20144;-70
2022/05/21 03:50:35;;;;;;;7.47;5.57;;;10.70;99.90;;;9.64;100.00;98293.13;5028820;28;20057;-70
2022/05/21 03:53:03;;;;;;;10.35;5.70;;;10.70;99.90;;;9.71;100.00;98306.78;5024874;28;20045;-72
2022/05/21 03:55:30;;;;;;;8.15;5.20;;;10.70;99.90;;;9.76;100.00;98305.78;5027261;28;20077;-72
2022/05/21 03:57:58;;;;;;;7.72;4.32;;;10.70;99.90;;;9.86;100.00;98306.38;5025807;28;20459;-71
2022/05/21 04:00:25;;;;;;;6.53;4.32;;;10.80;99.90;;;9.91;100.00;98308.84;5019479;28;20130;-71
2022/05/21 04:02:52;;;;;;;6.18;4.80;;;10.80;99.90;;;9.87;100.00;98313.25;5027521;28;20057;-71
2022/05/21 04:05:19;;;;;;;7.32;5.15;;;10.80;99.90;;;9.87;100.00;98308.06;5028817;28;20053;-71
2022/05/21 04:07:46;;;;;;;7.82;5.07;;;10.80;99.90;;;9.89;100.00;98308.03;5026464;28;20213;-73
2022/05/21 04:10:16;;;;;;;8.60;5.45;;;10.80;99.90;;;9.74;100.00;98312.75;5025519;28;20135;-71
2022/05/21 04:12:43;;;;;;;9.00;5.97;;;10.80;99.90;;;9.70;100.00;98308.53;5026904;28;20160;-72
2022/05/21 04:15:12;;;;;;;8.75;6.22;;;10.80;99.90;;;9.52;100.00;98322.00;5027270;28;20044;-73
2022/05/21 04:17:39;;;;;;;8.82;5.53;;;10.80;99.90;;;9.68;100.00;98325.03;5028149;28;20038;-71
2022/05/21 04:20:13;;;;;;;9.25;5.97;;;10.80;99.90;;;9.65;100.00;98320.78;5028408;28;20061;-72
2022/05/21 04:22:40;;;;;;;8.07;5.68;;;10.90;99.90;;;9.66;100.00;98322.47;5024925;28;20049;-71
2022/05/21 04:25:08;;;;;;;8.63;6.32;;;10.80;99.90;;;9.64;100.00;98325.09;5026867;28;20125;-72
2022/05/21 04:27:39;;;;;;;12.45;7.20;;;10.80;99.90;;;9.62;100.00;98333.78;5010402;28;20057;-72
2022/05/21 04:30:16;;;;;;;9.85;5.97;;;10.90;99.90;;;9.92;100.00;98332.13;5029002;28;20160;-71
2022/05/21 04:32:47;;;;;;;10.50;5.22;;;11.00;99.90;;;9.97;100.00;98332.84;5028692;28;20057;-71
2022/05/21 04:35:16;;;;;;;9.80;5.50;;;11.00;99.90;;;9.87;100.00;98340.91;5029032;28;20052;-71
2022/05/21 04:37:43;;;;;;;13.25;5.82;;;11.00;99.90;;;9.81;100.00;98336.75;5026916;28;20109;-71
2022/05/21 04:40:15;;;;;;;7.97;5.20;;;11.00;99.90;;;9.91;100.00;98334.75;5025495;28;20133;-71
2022/05/21 04:42:42;;;;;;;10.67;5.63;;;11.00;99.90;;;9.98;100.00;98337.13;5026867;28;20096;-71
2022/05/21 04:45:10;;;;;;;9.60;5.20;;;11.00;99.90;;;9.88;100.00;98340.03;5027939;28;20470;-71
2022/05/21 04:47:38;;;;;;;7.60;5.15;;;11.10;99.90;;;10.09;100.00;98338.59;5028594;28;20084;-72
2022/05/21 04:50:07;;;;;;;8.65;6.47;;;11.10;99.90;;;10.10;100.00;98335.94;5030033;28;20089;-72
2022/05/21 04:52:36;;;;;;;13.27;6.70;;;11.20;99.90;;;9.96;100.00;98343.25;5028368;28;20085;-71
2022/05/21 04:55:08;;;;;;;9.15;5.40;;;11.20;99.90;;;10.31;100.00;98336.22;5025423;28;20057;-72
2022/05/21 04:57:35;;;;;;;9.73;7.13;;;11.30;99.90;;;10.23;100.00;98342.47;5027104;28;20041;-71
2022/05/21 05:00:07;;;;;;;12.88;7.50;;;11.30;99.90;;;10.10;100.00;98348.91;5028057;28;20503;-72
2022/05/21 05:02:34;;;;;;;18.90;10.68;;;11.40;99.90;;;10.07;100.00;98346.41;5016372;28;20081;-72
2022/05/21 05:05:03;;;;;;;11.82;7.93;;;11.50;99.90;;;10.27;100.00;98354.47;5027257;28;20159;-73
2022/05/21 05:07:30;;;;;;;12.75;8.98;;;11.50;99.90;;;10.43;100.00;98348.88;5027843;28;20415;-72
2022/05/21 05:09:56;;;;;;;14.40;10.20;;;11.60;99.90;;;10.34;100.00;98354.31;5030169;28;20128;-72
2022/05/21 05:12:23;;;;;;;13.82;11.00;;;11.60;99.90;;;10.46;100.00;98347.00;5017384;28;20081;-72
2022/05/21 05:14:50;;;;;;;16.85;13.13;;;11.60;99.90;;;10.17;100.00;98349.56;5031410;28;20136;-72
2022/05/21 05:17:17;;;;;;;19.73;14.85;;;11.70;99.90;;;10.45;100.00;98353.13;5030458;28;20073;-72
2022/05/21 05:19:45;;;;;;;15.95;12.38;;;11.70;99.90;;;10.54;100.00;98349.41;5031161;28;20080;-72
2022/05/21 05:22:13;;;;;;;20.25;14.23;;;11.70;99.90;;;10.23;100.00;98357.19;5029001;28;20103;-73
2022/05/21 05:24:40;;;;;;;19.23;12.55;;;11.80;99.90;;;10.25;100.00;98356.25;5027598;28;20117;-72
2022/05/21 05:27:07;;;;;;;22.77;15.63;;;11.80;99.90;;;10.27;100.00;98351.03;5029059;28;20128;-71
2022/05/21 05:29:35;;;;;;;20.35;13.73;;;11.90;99.90;;;10.48;100.00;98359.13;5031241;28;20161;-73
2022/05/21 05:32:02;;;;;;;17.98;14.60;;;11.90;99.90;;;10.64;100.00;98347.38;5030103;28;20133;-72
2022/05/21 05:34:29;;;;;;;16.50;12.00;;;11.90;99.90;;;10.94;100.00;98353.34;5030403;28;20146;-72
2022/05/21 05:36:56;;;;;;;20.45;14.52;;;12.00;99.90;;;10.70;100.00;98351.50;5024947;28;20429;-71
2022/05/21 05:39:23;;;;;;;20.77;14.48;;;12.00;99.90;;;10.78;100.00;98350.38;5028692;28;20511;-71
2022/05/21 05:41:51;;;;;;;19.42;12.40;;;12.00;99.90;;;10.61;100.00;98337.09;5027612;28;20128;-74
2022/05/21 05:44:20;;;;;;;20.90;15.30;;;12.10;99.90;;;10.49;100.00;98343.50;5044821;28;20053;-71
2022/05/21 05:46:48;;;;;;;18.23;15.70;;;12.00;99.90;;;10.69;100.00;98345.47;5027780;28;20069;-71
2022/05/21 05:49:14;;;;;;;19.80;17.48;;;11.90;99.90;;;10.61;100.00;98352.66;5030102;28;20049;-72
2022/05/21 05:51:41;;;;;;;21.13;18.50;;;12.00;99.90;;;10.39;100.00;98348.09;5025722;28;20096;-71
2022/05/21 05:54:08;;;;;;;23.63;18.52;;;12.00;99.90;;;10.41;100.00;98353.25;5027675;28;20051;-71
2022/05/21 05:56:35;;;;;;;21.30;17.88;;;12.00;99.90;;;10.74;100.00;98346.19;5027359;28;20411;-70
2022/05/21 06:01:48;;;;;;;22.02;15.82;;;12.10;99.90;;;10.60;100.00;98367.38;5031017;28;20132;-71
2022/05/21 06:04:16;;;;;;;18.75;15.63;;;12.10;99.90;;;10.79;100.00;98356.44;5028642;28;20076;-72
2022/05/21 06:06:43;;;;;;;17.25;14.30;;;12.10;99.90;;;10.82;100.00;98359.78;5030650;28;20088;-73
2022/05/21 06:09:10;;;;;;;20.80;15.38;;;12.30;99.90;;;10.88;100.00;98350.97;5024691;28;20054;-71
2022/05/21 06:11:38;;;;;;;17.83;12.95;;;12.40;99.90;;;11.10;100.00;98338.13;5044182;28;20527;-71
2022/05/21 06:14:05;;;;;;;15.05;12.07;;;12.50;99.90;;;10.93;100.00;98351.66;5027327;28;20064;-71
2022/05/21 06:16:33;;;;;;;19.73;13.82;;;12.60;99.90;;;10.84;100.00;98354.56;5030140;28;20045;-71
2022/05/21 06:19:00;;;;;;;16.38;11.05;;;12.50;99.90;;;11.11;100.00;98347.63;5029474;28;20041;-72
2022/05/21 06:21:27;;;;;;;17.42;11.68;;;12.40;99.90;;;11.01;100.00;98346.22;5026037;28;20081;-71
2022/05/21 06:23:54;;;;;;;16.35;10.63;;;12.60;99.90;;;11.47;100.00;98345.56;5026295;28;20371;-71
2022/05/21 06:26:21;;;;;;;13.52;8.57;;;12.70;99.90;;;11.75;100.00;98341.16;5026270;28;20077;-72
2022/05/21 06:28:50;;;;;;;17.10;9.88;;;12.90;99.90;;;11.38;100.00;98350.19;5029606;28;20128;-72
2022/05/21 06:31:17;;;;;;;12.32;8.55;;;13.00;99.90;;;11.30;100.00;98333.13;5022452;28;20049;-70
2022/05/21 06:33:44;;;;;;;9.70;6.20;;;13.00;99.90;;;11.47;100.00;98339.50;5023451;28;20132;-71
2022/05/21 06:36:14;;;;;;;11.02;6.47;;;13.10;99.90;;;11.35;100.00;98326.91;5025256;28;20124;-71
2022/05/21 06:38:44;;;;;;;11.27;5.35;;;13.10;99.90;;;11.66;100.00;98318.94;5023622;28;20132;-70
2022/05/21 06:41:11;;;;;;;16.92;6.63;;;13.00;99.90;;;11.56;100.00;98325.34;5023729;28;20816;-72
2022/05/21 06:43:38;;;;;;;12.15;5.63;;;13.00;99.90;;;11.60;100.00;98321.72;5023484;28;20077;-71
2022/05/21 06:46:05;;;;;;;9.75;5.20;;;13.10;99.90;;;11.58;100.00;98320.94;5023495;28;20136;-70
2022/05/21 06:48:32;;;;;;;9.45;4.60;;;13.10;99.90;;;11.93;100.00;98317.97;5022106;28;20484;-70
2022/05/21 06:51:05;;;;;;;7.57;4.63;;;13.10;99.90;;;11.76;100.00;98319.44;5022451;28;20081;-70
2022/05/21 06:53:35;;;;;;;11.10;4.75;;;13.20;99.90;;;11.88;100.00;98312.09;5021404;28;20038;-71
2022/05/21 06:56:14;;;;;;;10.43;4.22;;;13.40;99.90;;;12.29;100.00;98298.44;5018639;28;20144;-70
2022/05/21 06:58:43;;;;;;;8.35;4.68;;;13.50;99.90;;;12.40;100.00;98296.25;5022160;28;20149;-71
2022/05/21 07:01:11;;;;;;;7.40;3.65;;;13.70;99.90;;;12.40;100.00;98298.88;5020428;28;20047;-72
2022/05/21 07:03:39;;;;;;;7.38;3.13;;;13.80;99.90;;;12.66;100.00;98292.66;5020071;28;20045;-71
2022/05/21 07:08:51;;;;;;;8.68;3.40;;;14.10;99.90;;;12.76;100.00;98299.19;5027320;28;20054;-70
2022/05/21 07:11:19;;;;;;;7.03;3.00;;;14.30;99.90;;;12.96;100.00;98300.16;5026906;28;20057;-72
2022/05/21 07:13:46;;;;;;;6.45;2.58;;;14.40;99.90;;;13.08;100.00;98293.59;5024979;28;20049;-71
2022/05/21 07:16:13;;;;;;;9.32;2.90;;;14.50;99.90;;;13.24;100.00;98297.25;5027910;28;20858;-71
2022/05/21 07:18:40;;;;;;;7.65;2.85;;;14.70;99.90;;;13.28;100.00;98290.19;5023779;28;20117;-71
2022/05/21 07:21:10;;;;;;;6.43;2.42;;;14.70;99.90;;;13.32;100.00;98299.56;5027528;28;20091;-72
2022/05/21 07:23:38;;;;;;;6.57;2.00;;;15.00;99.90;;;13.27;100.00;98291.91;5042545;28;20111;-71
2022/05/21 07:26:05;;;;;;;6.03;2.35;;;15.00;99.90;;;13.23;100.00;98289.47;5027542;28;20120;-72
2022/05/21 07:28:32;;;;;;;9.27;2.55;;;15.00;99.90;;;12.93;100.00;98302.88;5027324;28;20160;-74
2022/05/21 07:30:58;;;;;;;5.18;1.67;;;14.90;99.90;;;13.70;100.00;98284.88;5026667;28;20176;-72
2022/05/21 07:33:26;;;;;;;5.95;1.15;;;15.00;99.90;;;13.89;100.00;98295.38;5028532;28;20045;-72
2022/05/21 07:35:53;;;;;;;3.88;1.48;;;15.10;99.90;;;14.17;100.00;98278.44;5029025;28;20144;-71
2022/05/21 07:38:20;;;;;;;5.53;1.90;;;15.20;99.90;;;13.42;100.00;98292.22;5024905;28;20120;-71
2022/05/21 07:40:48;;;;;;;4.78;1.83;;;15.20;99.90;;;14.12;100.00;98285.66;5025946;28;20068;-71
2022/05/21 07:43:24;;;;;;;10.15;2.15;;;15.40;99.90;;;13.59;100.00;98289.72;5028436;28;20160;-72
2022/05/21 07:45:52;;;;;;;4.72;1.48;;;15.50;99.90;;;13.70;100.00;98290.09;5025388;28;20499;-70
2022/05/21 07:48:19;;;;;;;9.23;1.85;;;15.70;99.90;;;14.40;100.00;98280.00;5026998;28;20053;-72
2022/05/21 07:50:51;;;;;;;4.65;1.45;;;15.70;99.90;;;13.95;100.00;98284.63;5028099;28;20085;-71
2022/05/21 07:53:24;;;;;;;6.80;1.33;;;15.70;99.90;;;13.86;100.00;98284.19;5024950;28;20184;-73
2022/05/21 07:55:53;;;;;;;8.55;1.60;;;15.50;99.90;;;13.52;100.00;98301.31;5028180;28;20050;-72
2022/05/21 07:58:25;;;;;;;8.55;1.73;;;15.40;99.90;;;13.97;100.00;98295.00;5020012;28;20156;-72
2022/05/21 08:00:52;;;;;;;5.55;1.63;;;15.40;99.90;;;13.93;100.00;98296.06;5024599;28;20136;-71
2022/05/21 08:03:20;;;;;;;5.50;1.10;;;15.40;99.90;;;13.95;100.00;98292.47;5026237;28;20059;-72
2022/05/21 08:05:47;;;;;;;4.50;1.17;;;15.50;99.90;;;13.72;100.00;98297.88;5027037;28;20140;-71
2022/05/21 08:08:15;;;;;;;6.55;1.35;;;15.50;99.90;;;13.85;100.00;98317.28;5023004;28;20075;-73
2022/05/21 08:10:45;;;;;;;5.85;1.25;;;15.60;99.90;;;14.55;100.00;98270.59;5030031;28;20118;-71
2022/05/21 08:13:14;;;;;;;6.32;1.10;;;15.90;99.90;;;14.36;100.00;98263.59;5028955;28;20623;-71
2022/05/21 08:15:42;;;;;;;3.72;0.90;;;16.00;99.90;;;14.08;100.00;98298.00;5027995;28;20588;-71
2022/05/21 08:18:10;;;;;;;4.60;0.90;;;15.80;99.90;;;14.75;100.00;98267.03;5022356;28;20156;-71
2022/05/21 08:20:38;;;;;;;7.10;1.02;;;16.00;99.90;;;14.69;100.00;98268.19;5016722;28;20121;-71
2022/05/21 08:28:36;;;;;;;4.65;0.80;;;16.20;99.90;;;14.48;100.00;98263.94;5022664;28;20046;-71
2022/05/21 08:31:03;;;;;;;4.97;0.80;;;16.20;99.90;;;15.25;100.00;98261.91;5024518;28;20140;-70
2022/05/21 08:33:31;;;;;;;4.97;0.77;;;16.40;99.90;;;15.11;100.00;98285.31;5026070;28;20140;-71
2022/05/21 08:35:59;;;;;;;4.85;0.85;;;16.60;99.90;;;15.22;100.00;98269.09;5025875;28;20053;-71
2022/05/21 08:38:26;;;;;;;2.72;0.70;;;16.70;99.90;;;15.86;100.00;98257.94;5024673;28;20088;-71
2022/05/21 08:40:56;;;;;;;6.88;0.80;;;17.00;99.90;;;15.27;100.00;98256.63;5024741;28;20057;-73
2022/05/21 08:44:03;;;;;;;6.28;0.98;;;17.10;99.90;;;15.59;100.00;98241.03;5027215;28;20558;-72
2022/05/21 08:47:04;;;;;;;4.63;0.90;;;16.90;99.90;;;15.33;100.00;98248.47;5025061;28;20527;-71
2022/05/21 08:50:02;;;;;;;3.92;0.80;;;16.80;99.90;;;15.52;100.00;98253.59;5022248;28;20057;-71
2022/05/21 08:52:42;;;;;;;13.77;0.90;;;17.20;99.90;;;15.55;100.00;98239.50;5022583;28;20609;-71
2022/05/21 08:55:21;;;;;;;6.65;0.90;;;17.60;99.90;;;16.46;100.00;98238.09;5025286;28;20140;-71
2022/05/21 08:57:55;;;;;;;6.57;0.90;;;18.00;99.90;;;16.50;100.00;98237.00;5025832;28;20493;-70
2022/05/21 09:00:33;;;;;;;3.08;0.80;;;18.30;99.90;;;16.45;100.00;98218.09;5022621;28;20156;-72
2022/05/21 09:03:00;;;;;;;6.50;1.20;;;18.60;99.90;;;16.02;100.00;98225.69;5021833;28;20045;-72
2022/05/21 09:05:27;;;;;;;5.63;1.05;;;18.40;99.90;;;15.55;100.00;98249.97;5026728;28;20045;-71
2022/05/21 09:08:28;;;;;;;6.80;1.23;;;18.00;99.90;;;16.08;100.00;98226.19;5027382;28;20108;-73
2022/05/21 09:11:24;;;;;;;4.15;0.90;;;17.70;99.90;;;15.83;100.00;98221.44;5022320;28;20055;-72
2022/05/21 09:14:00;;;;;;;7.72;0.85;;;17.70;99.90;;;16.37;100.00;98223.72;5017244;28;20046;-71
2022/05/21 09:19:13;;;;;;;4.38;0.80;;;18.30;99.90;;;16.93;100.00;98203.97;5018815;28;20526;-72
2022/05/21 09:21:47;;;;;;;4.13;0.80;;;18.20;99.90;;;16.57;100.00;98213.91;5022835;28;20042;-71
2022/05/21 09:24:46;;;;;;;3.70;0.80;;;18.40;99.90;;;17.19;100.00;98213.84;5019013;28;20133;-71
2022/05/21 09:27:43;;;;;;;3.92;0.80;;;18.80;99.90;;;17.10;100.00;98200.34;5020816;28;20137;-73
2022/05/21 09:30:29;;;;;;;6.20;0.90;;;18.90;99.90;;;16.95;100.00;98209.13;5018256;28;20084;-72
2022/05/21 09:33:01;;;;;;;5.60;0.68;;;18.50;99.90;;;17.50;100.00;98200.59;5021324;28;20059;-73
2022/05/21 09:35:33;;;;;;;3.45;0.70;;;18.50;99.90;;;17.18;100.00;98210.41;5020381;28;20053;-71
2022/05/21 09:38:26;;;;;;;4.35;0.60;;;18.70;99.90;;;17.38;100.00;98198.72;5023498;28;20521;-71
2022/05/21 09:41:19;;;;;;;6.20;0.80;;;18.90;99.90;;;17.04;100.00;98198.09;5017815;28;20060;-71
2022/05/21 09:47:13;;;;;;;5.85;0.70;;;19.10;99.90;;;17.35;100.00;98196.25;5023436;28;20107;-72
2022/05/21 09:49:42;;;;;;;3.53;0.90;;;19.20;99.90;;;17.16;100.00;98203.56;5005180;28;20042;-73
2022/05/21 09:52:23;;;;;;;3.30;0.68;;;19.40;99.90;;;17.82;100.00;98199.59;5023234;28;20053;-73
2022/05/21 09:54:50;;;;;;;5.53;0.82;;;19.50;99.90;;;18.25;100.00;98192.47;5027904;28;20157;-72
2022/05/21 09:57:37;;;;;;;4.13;0.60;;;19.60;99.90;;;17.85;100.00;98196.75;5023425;28;20128;-73
2022/05/21 10:00:31;;;;;;;3.38;0.80;;;19.50;99.90;;;18.05;100.00;98204.22;5023886;28;20114;-73
2022/05/21 10:03:01;;;;;;;4.70;0.70;;;19.60;99.90;;;18.43;100.00;98195.69;5022601;28;20077;-71
2022/05/21 10:05:50;;;;;;;4.07;0.75;;;20.10;99.90;;;18.66;100.00;98177.56;5017253;28;20563;-71
2022/05/21 10:11:30;;;;;;;4.57;0.70;;;20.40;99.90;;;18.73;100.00;98186.75;5019093;28;20084;-71
2022/05/21 10:14:22;;;;;;;4.50;0.50;;;20.90;99.90;;;18.70;100.00;98190.44;5006257;28;20087;-70
2022/05/21 10:16:57;;;;;;;3.10;0.85;;;20.90;99.90;;;19.22;100.00;98184.31;5018220;28;20124;-71
2022/05/21 10:19:57;;;;;;;4.60;0.90;;;20.70;99.90;;;19.28;100.00;98177.78;5021961;28;20110;-70
2022/05/21 10:22:53;;;;;;;5.05;0.80;;;20.60;99.90;;;20.57;100.00;98160.78;5017595;28;20103;-73
2022/05/21 10:25:25;;;;;;;3.70;0.57;;;20.90;99.90;;;19.07;100.00;98187.13;5020372;28;20132;-73
2022/05/21 10:28:06;;;;;;;3.17;0.60;;;21.30;99.90;;;19.41;100.00;98177.81;5022428;28;20156;-72
2022/05/21 10:30:55;;;;;;;5.13;0.80;;;21.20;99.90;;;19.18;100.00;98190.75;5017504;28;20181;-73
2022/05/21 10:34:08;;;;;;;5.30;0.60;;;21.00;99.70;;;19.66;100.00;98171.66;5020933;28;20057;-71
2022/05/21 10:36:59;;;;;;;4.55;0.50;;;21.10;99.90;;;20.46;100.00;98166.81;5019049;28;20076;-71
2022/05/21 10:39:54;;;;;;;6.28;0.80;;;21.20;99.20;;;19.96;100.00;98181.03;5026118;28;20137;-71
2022/05/21 10:42:57;;;;;;;4.72;0.63;;;21.30;99.90;;;19.00;100.00;98186.72;5029102;28;20502;-72
2022/05/21 10:45:40;;;;;;;4.82;0.80;;;21.30;99.70;;;18.77;100.00;98181.22;5027063;28;20554;-72
2022/05/21 10:48:16;;;;;;;2.13;0.50;;;21.00;99.40;;;19.83;100.00;98184.50;5025609;28;20144;-72
2022/05/21 10:51:03;;;;;;;3.15;0.47;;;21.10;99.90;;;20.21;100.00;98170.38;5028423;28;20084;-72
2022/05/21 10:54:17;;;;;;;4.88;0.70;;;21.20;99.20;;;18.74;100.00;98183.16;5024301;28;20144;-71
2022/05/21 10:57:17;;;;;;;2.08;0.55;;;21.10;98.80;;;18.32;100.00;98171.88;5026579;28;20137;-69
2022/05/21 11:00:01;;;;;;;4.05;0.60;;;20.60;99.40;;;18.25;100.00;98176.69;5028976;28;20049;-72
2022/05/21 11:03:00;;;;;;;2.15;0.52;;;20.20;99.90;;;19.48;100.00;98160.63;5019198;28;20062;-71